Moose Lake, Minnesota
Current Conditions -  °F | °C
As of 8:14 AM on Sunday 25 Jan 2015 (Local Time) from KMZH Reporting Station
Overcast Overcast  
Wind Chill: 15°   Ceiling: 1400
Heat Index: 21°   Visibility: 10mi
Dew Point: 16°   Wind: 5mph
Humidity: 80%   Direction: 50°NE
Pressure: 29.97"   Gusts: NA
Location:  46.45°N, 92.76°W
Report Text: KMZH 251414Z AUTO 05004KT 10SM OVC014 M06/M09 A2997 RMK AO2
Loading
Personal Weather Stations






























Interactive Weather Map New forecast layout! Learn more

10-Day Weather Forecast

Advertisements
Track Severe Weather on mobile